createdAt,value
2019-01-24T00:00:54.238Z,28.20
2019-01-24T00:01:59.630Z,27.90
2019-01-24T00:03:05.491Z,27.17
2019-01-24T00:04:13.133Z,26.17
2019-01-24T00:05:21.187Z,24.92
2019-01-24T00:06:28.780Z,25.77
2019-01-24T00:07:34.316Z,24.82
2019-01-24T00:08:39.616Z,28.15
2019-01-24T00:09:45.414Z,26.17
2019-01-24T00:10:51.004Z,28.40
2019-01-24T00:11:56.411Z,26.65
2019-01-24T00:13:02.033Z,25.27
2019-01-24T00:14:07.803Z,29.10
2019-01-24T00:15:15.668Z,27.02
2019-01-24T00:16:21.138Z,26.30
2019-01-24T00:17:26.328Z,27.35
2019-01-24T00:18:31.685Z,25.00
2019-01-24T00:19:37.281Z,26.42
2019-01-24T00:20:42.617Z,27.75
2019-01-24T00:21:50.455Z,28.40
2019-01-24T00:22:55.844Z,24.80
2019-01-24T00:24:01.297Z,25.55
2019-01-24T00:25:10.484Z,29.00
2019-01-24T00:26:15.714Z,26.33
2019-01-24T00:27:21.080Z,27.80
2019-01-24T00:28:26.588Z,29.67
2019-01-24T00:29:33.921Z,27.82
2019-01-24T00:30:39.283Z,26.20
2019-01-24T00:31:44.753Z,26.37
2019-01-24T00:32:50.230Z,28.38
2019-01-24T00:33:55.387Z,28.27
2019-01-24T00:35:02.137Z,28.10
2019-01-24T00:36:07.680Z,27.00
2019-01-24T00:37:13.176Z,26.60
2019-01-24T00:38:21.098Z,27.52
2019-01-24T00:39:26.358Z,24.92
2019-01-24T00:40:32.235Z,28.15
2019-01-24T00:41:37.429Z,25.97
2019-01-24T00:42:43.120Z,28.35
2019-01-24T00:43:48.349Z,27.62
2019-01-24T00:44:53.844Z,26.90
2019-01-24T00:45:59.414Z,26.23
2019-01-24T00:47:05.401Z,28.32
2019-01-24T00:48:10.671Z,26.40
2019-01-24T00:49:16.022Z,25.68
2019-01-24T00:50:21.303Z,28.65
2019-01-24T00:51:26.639Z,26.07
2019-01-24T00:52:33.085Z,26.00
2019-01-24T00:53:38.750Z,28.38
2019-01-24T00:54:44.020Z,26.17
2019-01-24T00:55:49.460Z,29.05
2019-01-24T00:56:54.648Z,26.97
2019-01-24T00:58:00.000Z,28.00
2019-01-24T00:59:05.417Z,27.73
2019-01-24T01:00:20.019Z,27.13
2019-01-24T01:01:25.168Z,26.35
2019-01-24T01:02:30.516Z,27.25
2019-01-24T01:03:35.635Z,27.50
2019-01-24T01:04:41.250Z,24.80
2019-01-24T01:05:46.751Z,27.30
2019-01-24T01:06:52.149Z,27.25
2019-01-24T01:07:57.519Z,27.65
2019-01-24T01:09:03.100Z,28.02
2019-01-24T01:10:09.193Z,28.73
2019-01-24T01:11:17.415Z,27.90
2019-01-24T01:12:28.823Z,26.73
2019-01-24T01:13:34.112Z,27.17
2019-01-24T01:14:42.367Z,29.27
2019-01-24T01:15:47.734Z,28.07
2019-01-24T01:16:55.842Z,30.05
2019-01-24T01:18:01.163Z,28.00
2019-01-24T01:19:06.486Z,27.35
2019-01-24T01:20:14.638Z,27.87
2019-01-24T01:21:20.021Z,26.82
2019-01-24T01:22:25.591Z,26.95
2019-01-24T01:23:31.020Z,27.37
2019-01-24T01:24:36.379Z,27.62
2019-01-24T01:25:41.776Z,28.25
2019-01-24T01:26:47.449Z,28.17
2019-01-24T01:27:53.130Z,27.45
2019-01-24T01:28:58.465Z,26.73
2019-01-24T01:30:03.797Z,27.20
2019-01-24T01:31:09.133Z,27.65
2019-01-24T01:32:14.368Z,24.12
2019-01-24T01:33:19.522Z,26.68
2019-01-24T01:34:24.848Z,25.60
2019-01-24T01:35:30.373Z,23.70
2019-01-24T01:36:36.964Z,26.33
2019-01-24T01:37:42.214Z,26.27
2019-01-24T01:38:47.789Z,26.77
2019-01-24T01:39:53.029Z,26.40
2019-01-24T01:40:59.101Z,26.42
2019-01-24T01:42:04.376Z,24.50
2019-01-24T01:43:09.707Z,26.73
2019-01-24T01:44:15.534Z,27.60
2019-01-24T01:45:22.239Z,25.62
2019-01-24T01:46:27.509Z,26.87
2019-01-24T01:47:32.907Z,26.77
2019-01-24T01:48:38.344Z,27.82
2019-01-24T01:49:43.591Z,26.87
2019-01-24T01:50:48.777Z,23.55
2019-01-24T01:51:53.929Z,26.20
2019-01-24T01:52:59.098Z,27.00
2019-01-24T01:54:04.519Z,25.08
2019-01-24T01:55:09.981Z,26.90
2019-01-24T01:56:15.280Z,26.77
2019-01-24T01:57:20.577Z,25.82
2019-01-24T01:58:25.756Z,25.57
2019-01-24T01:59:30.955Z,27.45
2019-01-24T02:00:36.503Z,26.05
2019-01-24T02:01:41.651Z,30.25
2019-01-24T02:02:47.079Z,25.90
2019-01-24T02:03:52.336Z,27.52
2019-01-24T02:04:57.487Z,26.77
2019-01-24T02:06:02.720Z,26.27
2019-01-24T02:07:09.241Z,28.07
2019-01-24T02:08:14.453Z,27.50
2019-01-24T02:09:19.608Z,28.35
2019-01-24T02:10:25.580Z,29.42
2019-01-24T02:11:30.759Z,26.30
2019-01-24T02:12:36.216Z,28.23
2019-01-24T02:13:41.496Z,26.97
2019-01-24T02:14:46.744Z,29.37
2019-01-24T02:15:51.984Z,29.55
2019-01-24T02:16:57.328Z,27.07
2019-01-24T02:18:02.647Z,27.45
2019-01-24T02:19:09.147Z,28.25
2019-01-24T02:20:16.966Z,29.25
2019-01-24T02:21:22.398Z,28.73
2019-01-24T02:22:27.885Z,28.07
2019-01-24T02:23:33.066Z,28.52
2019-01-24T02:24:38.594Z,28.32
2019-01-24T02:25:43.995Z,27.70
2019-01-24T02:26:49.524Z,25.82
2019-01-24T02:27:55.331Z,28.98
2019-01-24T02:29:00.605Z,29.15
2019-01-24T02:30:07.531Z,29.45
2019-01-24T02:31:12.898Z,28.42
2019-01-24T02:32:18.089Z,24.92
2019-01-24T02:33:23.397Z,28.85
2019-01-24T02:34:28.531Z,26.45
2019-01-24T02:35:33.775Z,26.95
2019-01-24T02:36:39.029Z,27.07
2019-01-24T02:37:44.599Z,27.80
2019-01-24T02:38:49.827Z,27.27
2019-01-24T02:39:54.994Z,29.10
2019-01-24T02:41:00.317Z,27.95
2019-01-24T02:42:05.809Z,26.85
2019-01-24T02:43:10.989Z,28.47
2019-01-24T02:44:16.261Z,25.40
2019-01-24T02:45:22.736Z,25.82
2019-01-24T02:46:27.954Z,27.17
2019-01-24T02:47:33.288Z,27.50
2019-01-24T02:48:38.910Z,25.92
2019-01-24T02:49:44.124Z,26.42
2019-01-24T02:50:49.363Z,26.85
2019-01-24T02:51:54.815Z,26.57
2019-01-24T02:53:00.270Z,26.02
2019-01-24T02:54:05.734Z,25.75
2019-01-24T02:55:13.697Z,26.95
2019-01-24T02:56:19.026Z,27.00
2019-01-24T02:57:24.334Z,26.52
2019-01-24T02:58:29.499Z,28.55
2019-01-24T02:59:34.767Z,26.60
2019-01-24T03:00:42.912Z,26.80
2019-01-24T03:01:48.212Z,29.92
2019-01-24T03:02:53.621Z,29.23
2019-01-24T03:03:58.751Z,30.50
2019-01-24T03:05:05.394Z,28.02
2019-01-24T03:06:10.826Z,30.30
2019-01-24T03:07:16.592Z,28.85
2019-01-24T03:08:21.900Z,26.62
2019-01-24T03:09:27.219Z,27.50
2019-01-24T03:10:32.547Z,29.27
2019-01-24T03:11:38.037Z,28.75
2019-01-24T03:12:43.503Z,30.10
2019-01-24T03:13:50.062Z,28.80
2019-01-24T03:14:55.386Z,28.50
2019-01-24T03:16:00.605Z,28.00
2019-01-24T03:17:06.044Z,28.45
2019-01-24T03:18:11.284Z,31.37
2019-01-24T03:19:16.668Z,31.62
2019-01-24T03:20:21.970Z,28.98
2019-01-24T03:21:27.209Z,29.95
2019-01-24T03:22:32.480Z,30.12
2019-01-24T03:23:37.739Z,28.60
2019-01-24T03:24:42.929Z,29.87
2019-01-24T03:25:48.108Z,30.30
2019-01-24T03:26:53.549Z,27.40
2019-01-24T03:27:59.000Z,29.67
2019-01-24T03:29:05.642Z,27.80
2019-01-24T03:30:23.880Z,28.85
2019-01-24T03:31:32.054Z,28.57
2019-01-24T03:32:37.369Z,28.02
2019-01-24T03:33:43.879Z,30.35
2019-01-24T03:34:49.791Z,28.47
2019-01-24T03:35:55.077Z,26.55
2019-01-24T03:37:00.426Z,29.67
2019-01-24T03:38:05.882Z,28.23
2019-01-24T03:39:16.522Z,27.67
2019-01-24T03:40:22.310Z,27.98
2019-01-24T03:41:27.472Z,27.13
2019-01-24T03:42:32.643Z,26.48
2019-01-24T03:43:38.001Z,28.23
2019-01-24T03:44:43.240Z,28.55
2019-01-24T03:45:48.425Z,26.42
2019-01-24T03:46:59.972Z,28.50
2019-01-24T03:48:01.023Z,29.07
2019-01-24T03:49:06.474Z,30.77
2019-01-24T03:50:14.537Z,29.98
2019-01-24T03:51:19.797Z,29.60
2019-01-24T03:52:25.126Z,29.23
2019-01-24T03:53:30.550Z,29.40
2019-01-24T03:54:35.810Z,30.57
2019-01-24T03:55:41.071Z,30.35
2019-01-24T03:56:46.329Z,29.52
2019-01-24T03:57:51.713Z,27.45
2019-01-24T03:58:57.163Z,30.52
2019-01-24T04:00:07.110Z,28.85
2019-01-24T04:01:12.900Z,28.25
2019-01-24T04:02:20.903Z,27.10
2019-01-24T04:03:26.306Z,30.20
2019-01-24T04:04:32.040Z,29.27
2019-01-24T04:05:37.298Z,31.60
2019-01-24T04:06:42.571Z,28.27
2019-01-24T04:07:47.848Z,31.55
2019-01-24T04:08:53.311Z,29.70
2019-01-24T04:09:58.709Z,34.03
2019-01-24T04:11:06.468Z,30.70
2019-01-24T04:12:15.356Z,28.52
2019-01-24T04:13:20.799Z,30.20
2019-01-24T04:14:26.243Z,30.77
2019-01-24T04:15:31.668Z,31.52
2019-01-24T04:16:36.854Z,30.17
2019-01-24T04:17:42.063Z,30.02
2019-01-24T04:18:47.356Z,29.35
2019-01-24T04:19:52.776Z,30.72
2019-01-24T04:20:59.271Z,30.17
2019-01-24T04:22:04.558Z,30.70
2019-01-24T04:23:09.813Z,35.05
2019-01-24T04:24:15.127Z,31.60
2019-01-24T04:25:20.443Z,31.50
2019-01-24T04:28:13.628Z,30.65
2019-01-24T04:29:18.930Z,29.12
2019-01-24T04:30:25.267Z,30.27
2019-01-24T04:31:30.577Z,30.50
2019-01-24T04:32:35.903Z,33.15
2019-01-24T04:33:41.705Z,29.70
2019-01-24T04:34:46.981Z,31.00
2019-01-24T04:35:52.340Z,32.00
2019-01-24T04:36:57.691Z,30.05
2019-01-24T04:38:02.981Z,31.68
2019-01-24T04:39:09.289Z,31.15
2019-01-24T04:40:16.480Z,31.12
2019-01-24T04:41:21.752Z,33.42
2019-01-24T04:42:27.541Z,32.60
2019-01-24T04:43:33.431Z,30.80
2019-01-24T04:44:38.942Z,33.75
2019-01-24T04:45:44.670Z,29.82
2019-01-24T04:46:54.284Z,29.52
2019-01-24T04:48:02.652Z,31.55
2019-01-24T04:49:10.752Z,33.25
2019-01-24T04:50:22.701Z,29.63
2019-01-24T04:51:28.015Z,30.62
2019-01-24T04:52:33.397Z,31.95
2019-01-24T04:53:39.897Z,29.30
2019-01-24T04:54:49.270Z,28.92
2019-01-24T04:55:56.245Z,30.20
2019-01-24T04:57:07.057Z,30.10
2019-01-24T04:58:18.866Z,29.85
2019-01-24T04:59:24.423Z,29.80
2019-01-24T05:00:47.293Z,28.62
2019-01-24T05:02:03.293Z,26.87
2019-01-24T05:03:08.818Z,29.57
2019-01-24T05:04:14.065Z,28.73
2019-01-24T05:05:27.047Z,32.28
2019-01-24T05:06:26.367Z,30.70
2019-01-24T05:07:31.614Z,26.62
2019-01-24T05:08:36.911Z,32.40
2019-01-24T05:09:42.294Z,31.10
2019-01-24T05:10:51.008Z,29.63
2019-01-24T05:11:56.576Z,30.10
2019-01-24T05:13:02.066Z,31.95
2019-01-24T05:14:07.426Z,31.27
2019-01-24T05:15:14.584Z,31.20
2019-01-24T05:16:20.318Z,32.38
2019-01-24T05:17:26.091Z,29.90
2019-01-24T05:18:31.457Z,33.30
2019-01-24T05:19:37.454Z,32.63
2019-01-24T05:20:42.924Z,35.45
2019-01-24T05:21:48.711Z,36.08
2019-01-24T05:22:54.201Z,30.05
2019-01-24T05:23:59.711Z,30.35
2019-01-24T05:25:07.789Z,29.55
2019-01-24T05:26:13.428Z,29.20
2019-01-24T05:27:18.993Z,31.02
2019-01-24T05:28:24.741Z,30.00
2019-01-24T05:29:30.698Z,31.50
2019-01-24T05:30:47.256Z,31.75
2019-01-24T05:32:00.780Z,29.42
2019-01-24T05:33:10.560Z,29.60
2019-01-24T05:34:25.315Z,30.90
2019-01-24T05:35:34.955Z,30.27
2019-01-24T05:36:57.361Z,31.10
2019-01-24T05:38:07.003Z,27.77
2019-01-24T05:39:17.499Z,28.42
2019-01-24T05:40:53.262Z,30.23
2019-01-24T05:42:03.469Z,29.63
2019-01-24T05:43:11.934Z,31.62
2019-01-24T05:44:17.509Z,30.57
2019-01-24T05:45:35.220Z,30.50
2019-01-24T05:46:44.701Z,29.05
2019-01-24T05:47:53.605Z,30.77
2019-01-24T05:48:59.083Z,28.90
2019-01-24T05:50:06.165Z,28.95
2019-01-24T05:51:11.568Z,28.57
2019-01-24T05:52:19.744Z,30.15
2019-01-24T05:53:23.864Z,30.00
2019-01-24T05:54:29.550Z,34.23
2019-01-24T05:55:34.972Z,32.48
2019-01-24T05:56:52.658Z,31.37
2019-01-24T05:57:59.925Z,28.20
2019-01-24T05:59:05.389Z,30.85
2019-01-24T06:00:17.349Z,33.00
2019-01-24T06:01:43.158Z,29.85
2019-01-24T06:03:11.435Z,33.30
2019-01-24T06:04:26.783Z,28.23
2019-01-24T06:05:33.191Z,31.57
2019-01-24T06:06:42.657Z,31.80
2019-01-24T06:09:33.870Z,29.52
2019-01-24T06:10:46.592Z,29.95
2019-01-24T06:11:53.173Z,31.55
2019-01-24T06:12:58.709Z,34.48
2019-01-24T06:14:08.242Z,33.15
2019-01-24T06:15:25.094Z,29.95
2019-01-24T06:16:31.386Z,29.98
2019-01-24T06:17:48.081Z,31.50
2019-01-24T06:18:53.840Z,31.85
2019-01-24T06:19:59.294Z,30.43
2019-01-24T06:23:00.418Z,29.77
2019-01-24T06:24:13.682Z,30.50
2019-01-24T06:25:25.541Z,30.60
2019-01-24T06:26:35.308Z,30.90
2019-01-24T06:27:46.019Z,32.42
2019-01-24T06:29:06.285Z,30.05
2019-01-24T06:30:18.172Z,31.75
2019-01-24T06:31:38.655Z,29.67
2019-01-24T06:34:13.465Z,31.55
2019-01-24T06:35:20.396Z,29.42
2019-01-24T06:36:43.065Z,31.48
2019-01-24T06:37:50.034Z,29.98
2019-01-24T06:39:01.764Z,32.78
2019-01-24T06:40:11.544Z,31.33
2019-01-24T06:41:42.164Z,28.83
2019-01-24T06:42:48.761Z,27.70
2019-01-24T06:43:54.435Z,31.62
2019-01-24T06:45:01.297Z,29.75
2019-01-24T06:46:06.851Z,30.62
2019-01-24T06:47:12.430Z,30.00
2019-01-24T06:48:18.491Z,30.95
2019-01-24T06:49:23.890Z,32.60
2019-01-24T06:50:30.176Z,31.50
2019-01-24T06:51:46.213Z,32.53
2019-01-24T06:52:52.041Z,30.80
2019-01-24T06:53:57.355Z,30.97
2019-01-24T06:55:02.916Z,37.03
2019-01-24T06:56:08.639Z,35.33
2019-01-24T06:57:13.929Z,47.50
2019-01-24T06:58:19.412Z,41.88
2019-01-24T06:59:32.025Z,35.52
2019-01-24T07:00:38.054Z,37.17
2019-01-24T07:01:55.107Z,37.17
2019-01-24T07:03:00.629Z,36.63
2019-01-24T07:04:06.249Z,38.53
2019-01-24T07:05:11.935Z,33.78
2019-01-24T07:06:18.744Z,32.55
2019-01-24T07:07:38.027Z,32.15
2019-01-24T07:08:56.051Z,34.20
2019-01-24T07:10:02.707Z,33.18
2019-01-24T07:11:08.284Z,31.93
2019-01-24T07:12:30.390Z,31.37
2019-01-24T07:13:38.772Z,35.78
2019-01-24T07:14:48.535Z,49.23
2019-01-24T07:15:54.054Z,46.73
2019-01-24T07:17:02.843Z,41.83
2019-01-24T07:18:11.027Z,39.00
2019-01-24T07:19:18.120Z,43.02
2019-01-24T07:20:23.773Z,63.70
2019-01-24T07:21:29.348Z,37.33
2019-01-24T07:22:35.987Z,34.20
2019-01-24T07:23:58.896Z,34.10
2019-01-24T07:25:30.278Z,29.67
2019-01-24T07:26:45.093Z,31.30
2019-01-24T07:28:09.342Z,30.17
2019-01-24T07:29:17.702Z,28.87
2019-01-24T07:30:23.784Z,30.45
2019-01-24T07:31:40.182Z,31.57
2019-01-24T07:32:47.675Z,31.62
2019-01-24T07:34:06.316Z,32.70
2019-01-24T07:35:22.142Z,29.55
2019-01-24T07:36:29.526Z,32.00
2019-01-24T07:37:37.450Z,29.85
2019-01-24T07:38:51.882Z,31.23
2019-01-24T07:39:57.607Z,31.25
2019-01-24T07:41:03.604Z,31.42
2019-01-24T07:42:09.343Z,29.30
2019-01-24T07:43:15.735Z,30.60
2019-01-24T07:44:21.664Z,30.23
2019-01-24T07:45:37.610Z,31.30
2019-01-24T07:46:43.077Z,30.30
2019-01-24T07:47:48.801Z,30.92
2019-01-24T07:49:55.060Z,32.60
2019-01-24T07:51:03.925Z,29.92
2019-01-24T07:52:09.510Z,31.77
2019-01-24T07:53:15.201Z,33.25
2019-01-24T07:54:23.733Z,32.75
2019-01-24T07:55:29.688Z,29.82
2019-01-24T07:56:35.736Z,31.48
2019-01-24T07:57:41.459Z,30.48
2019-01-24T07:58:47.502Z,31.68
2019-01-24T07:59:53.275Z,30.43
2019-01-24T08:00:58.935Z,33.25
2019-01-24T08:02:07.160Z,31.17
2019-01-24T08:03:18.370Z,31.15
2019-01-24T08:04:25.804Z,34.35
2019-01-24T08:05:31.985Z,34.08
2019-01-24T08:06:40.146Z,34.48
2019-01-24T08:07:47.851Z,31.07
2019-01-24T08:08:53.338Z,30.43
2019-01-24T08:10:00.270Z,32.08
2019-01-24T08:11:05.920Z,31.97
2019-01-24T08:12:12.868Z,31.62
2019-01-24T08:13:18.686Z,32.70
2019-01-24T08:14:27.398Z,31.62
2019-01-24T08:15:32.722Z,33.65
2019-01-24T08:16:38.318Z,33.40
2019-01-24T08:17:47.921Z,33.63
2019-01-24T08:18:53.407Z,33.08
2019-01-24T08:20:02.889Z,31.05
2019-01-24T08:21:09.733Z,31.33
2019-01-24T08:22:15.489Z,30.90
2019-01-24T08:23:22.720Z,31.80
2019-01-24T08:24:28.455Z,30.92
2019-01-24T08:25:34.628Z,30.85
2019-01-24T08:26:40.272Z,30.30
2019-01-24T08:27:46.904Z,31.93
2019-01-24T08:28:53.089Z,31.05
2019-01-24T08:30:01.430Z,30.75
2019-01-24T08:31:08.742Z,31.15
2019-01-24T08:32:15.444Z,32.75
2019-01-24T08:33:21.602Z,32.25
2019-01-24T08:34:27.544Z,30.75
2019-01-24T08:35:33.965Z,31.80
2019-01-24T08:36:39.802Z,29.80
2019-01-24T08:38:00.112Z,30.72
2019-01-24T08:39:41.428Z,33.33
2019-01-24T08:40:50.208Z,30.75
2019-01-24T08:42:04.646Z,29.82
2019-01-24T08:43:14.211Z,32.65
2019-01-24T08:44:20.895Z,31.45
2019-01-24T08:45:34.022Z,31.57
2019-01-24T08:47:05.095Z,33.70
2019-01-24T08:48:12.219Z,32.90
2019-01-24T08:49:20.667Z,34.73
2019-01-24T08:50:27.466Z,32.55
2019-01-24T08:51:33.350Z,31.70
2019-01-24T08:52:43.257Z,33.60
2019-01-24T08:53:48.690Z,33.55
2019-01-24T08:54:59.792Z,34.50
2019-01-24T08:56:06.508Z,33.38
2019-01-24T08:57:14.520Z,31.65
2019-01-24T08:58:25.188Z,30.95
2019-01-24T08:59:36.507Z,33.45
2019-01-24T09:00:45.631Z,33.18
2019-01-24T09:01:52.731Z,37.35
2019-01-24T09:02:58.683Z,33.40
2019-01-24T09:04:04.638Z,34.43
2019-01-24T09:05:45.957Z,30.23
2019-01-24T09:06:52.483Z,33.83
2019-01-24T09:07:59.065Z,32.45
2019-01-24T09:09:11.962Z,35.58
2019-01-24T09:10:22.872Z,34.20
2019-01-24T09:11:28.200Z,33.08
2019-01-24T09:12:35.159Z,34.70
2019-01-24T09:13:40.785Z,34.25
2019-01-24T09:14:49.710Z,33.33
2019-01-24T09:15:55.463Z,35.15
2019-01-24T09:17:19.805Z,31.55
2019-01-24T09:18:36.393Z,34.85
2019-01-24T09:19:43.658Z,32.23
2019-01-24T09:20:51.982Z,33.42
2019-01-24T09:21:58.853Z,30.70
2019-01-24T09:23:06.487Z,32.50
2019-01-24T09:24:12.029Z,35.00
2019-01-24T09:25:18.279Z,34.90
2019-01-24T09:26:23.921Z,36.25
2019-01-24T09:27:29.982Z,36.25
2019-01-24T09:28:49.139Z,34.40
2019-01-24T09:30:23.581Z,32.78
2019-01-24T09:31:42.550Z,34.08
2019-01-24T09:33:11.931Z,33.33
2019-01-24T09:34:28.417Z,33.02
2019-01-24T09:35:51.290Z,33.90
2019-01-24T09:37:10.825Z,33.80
2019-01-24T09:38:17.508Z,34.70
2019-01-24T09:39:41.076Z,35.10
2019-01-24T09:41:03.935Z,31.02
2019-01-24T09:42:27.513Z,33.65
2019-01-24T09:43:52.825Z,34.92
2019-01-24T09:45:28.995Z,32.95
2019-01-24T09:47:03.120Z,33.30
2019-01-24T09:48:40.277Z,32.50
2019-01-24T09:50:04.833Z,33.58
2019-01-24T09:51:28.417Z,31.33
2019-01-24T09:52:51.911Z,34.80
2019-01-24T09:54:00.822Z,34.50
2019-01-24T09:55:28.755Z,34.63
2019-01-24T09:56:39.196Z,37.05
2019-01-24T09:57:49.633Z,42.33
2019-01-24T09:59:02.201Z,36.35
2019-01-24T10:00:22.943Z,42.30
2019-01-24T10:01:32.938Z,34.88
2019-01-24T10:02:42.362Z,34.20
2019-01-24T10:03:48.934Z,37.35
2019-01-24T10:05:00.842Z,36.68
2019-01-24T10:06:25.252Z,37.53
2019-01-24T10:07:36.474Z,34.63
2019-01-24T10:09:33.548Z,34.23
2019-01-24T10:10:56.583Z,34.27
2019-01-24T10:12:21.439Z,31.33
2019-01-24T10:13:27.100Z,34.92
2019-01-24T10:14:35.788Z,35.92
2019-01-24T10:15:43.751Z,34.60
2019-01-24T10:16:50.358Z,34.38
2019-01-24T10:17:59.517Z,36.63
2019-01-24T10:19:28.664Z,34.58
2019-01-24T10:20:34.903Z,34.18
2019-01-24T10:21:41.554Z,33.08
2019-01-24T10:22:47.321Z,34.90
2019-01-24T10:25:08.650Z,37.23
2019-01-24T10:26:51.772Z,32.28
2019-01-24T10:28:18.591Z,33.60
2019-01-24T10:29:28.487Z,35.30
2019-01-24T10:30:35.434Z,32.48
2019-01-24T10:31:42.881Z,37.48
2019-01-24T10:32:55.872Z,34.03
2019-01-24T10:34:33.614Z,34.88
2019-01-24T10:36:04.121Z,36.15
2019-01-24T10:37:29.603Z,32.67
2019-01-24T10:38:35.376Z,35.40
2019-01-24T10:39:40.901Z,35.68
2019-01-24T10:40:48.540Z,33.85
2019-01-24T10:41:54.192Z,35.25
2019-01-24T10:43:00.897Z,38.15
2019-01-24T10:44:09.188Z,37.23
2019-01-24T10:45:15.758Z,37.75
2019-01-24T10:46:21.689Z,43.92
2019-01-24T10:47:34.932Z,39.50
2019-01-24T10:48:42.300Z,37.63
2019-01-24T10:49:49.686Z,35.58
2019-01-24T10:50:58.955Z,35.58
2019-01-24T10:52:08.693Z,36.90
2019-01-24T10:53:49.653Z,35.95
2019-01-24T10:54:58.919Z,32.75
2019-01-24T10:56:43.250Z,34.98
2019-01-24T10:57:57.557Z,34.13
2019-01-24T10:59:21.955Z,34.98
2019-01-24T11:00:42.168Z,34.33
2019-01-24T11:01:56.721Z,35.45
2019-01-24T11:03:08.263Z,36.40
2019-01-24T11:04:18.484Z,36.38
2019-01-24T11:05:27.161Z,35.48
2019-01-24T11:06:32.778Z,36.23
2019-01-24T11:07:38.630Z,36.03
2019-01-24T11:08:47.290Z,38.08
2019-01-24T11:10:03.657Z,37.20
2019-01-24T11:11:09.988Z,37.95
2019-01-24T11:12:40.574Z,35.88
2019-01-24T11:13:47.242Z,34.53
2019-01-24T11:15:00.814Z,37.73
2019-01-24T11:16:23.328Z,35.13
2019-01-24T11:17:43.379Z,38.17
2019-01-24T11:20:50.395Z,37.03
2019-01-24T11:21:57.778Z,39.65
2019-01-24T11:23:08.173Z,39.60
2019-01-24T11:24:16.764Z,40.83
2019-01-24T11:25:26.710Z,38.85
2019-01-24T11:26:32.738Z,39.35
2019-01-24T11:27:38.573Z,38.60
2019-01-24T11:28:45.724Z,37.53
2019-01-24T11:29:51.607Z,39.25
2019-01-24T11:30:57.157Z,42.17
2019-01-24T11:32:10.902Z,40.98
2019-01-24T11:34:51.460Z,36.25
2019-01-24T11:35:58.494Z,40.35
2019-01-24T11:37:08.069Z,38.25
2019-01-24T11:38:15.743Z,38.83
2019-01-24T11:39:22.313Z,38.45
2019-01-24T11:40:29.283Z,39.13
2019-01-24T11:41:39.952Z,38.10
2019-01-24T11:42:52.491Z,41.48
2019-01-24T11:44:00.681Z,40.25
2019-01-24T11:45:13.761Z,41.48
2019-01-24T11:46:24.997Z,41.83
2019-01-24T11:47:36.570Z,41.53
2019-01-24T11:48:46.471Z,42.13
2019-01-24T11:49:57.626Z,40.83
2019-01-24T11:51:12.805Z,39.38
2019-01-24T11:52:42.364Z,38.58
2019-01-24T11:54:18.132Z,37.98
2019-01-24T11:55:55.638Z,39.63
2019-01-24T11:57:21.365Z,38.58
2019-01-24T11:58:31.551Z,42.73
2019-01-24T11:59:38.143Z,40.95
2019-01-24T12:01:07.919Z,40.38
2019-01-24T12:03:27.926Z,40.03
2019-01-24T12:04:36.432Z,42.23
2019-01-24T12:05:47.491Z,40.83
2019-01-24T12:06:55.258Z,40.52
2019-01-24T12:08:02.232Z,44.05
2019-01-24T12:09:10.844Z,40.33
2019-01-24T12:10:21.045Z,42.98
2019-01-24T12:11:30.404Z,42.70
2019-01-24T12:12:36.274Z,42.93
2019-01-24T12:13:45.169Z,42.98
2019-01-24T12:14:50.860Z,43.33
2019-01-24T12:15:56.338Z,42.23
2019-01-24T12:17:03.153Z,40.88
2019-01-24T12:18:08.664Z,39.18
2019-01-24T12:19:14.932Z,42.13
2019-01-24T12:20:22.492Z,41.48
2019-01-24T12:21:57.029Z,44.08
2019-01-24T12:23:10.610Z,41.75
2019-01-24T12:24:19.462Z,41.85
2019-01-24T12:25:29.182Z,40.17
2019-01-24T12:26:45.199Z,45.35
2019-01-24T12:29:41.265Z,40.80
2019-01-24T12:30:50.008Z,44.75
2019-01-24T12:31:55.986Z,43.13
2019-01-24T12:33:04.055Z,41.02
2019-01-24T12:34:27.732Z,44.70
2019-01-24T12:35:34.691Z,45.48
2019-01-24T12:40:09.343Z,44.45
2019-01-24T12:41:21.218Z,45.23
2019-01-24T12:42:31.285Z,41.20
2019-01-24T12:43:43.101Z,44.60
2019-01-24T12:44:50.888Z,46.37
2019-01-24T12:46:00.993Z,42.27
2019-01-24T12:47:10.512Z,42.10
2019-01-24T12:48:18.982Z,42.80
2019-01-24T12:49:27.755Z,42.48
2019-01-24T12:50:33.860Z,42.78
2019-01-24T12:51:43.805Z,44.98
2019-01-24T12:52:50.891Z,42.70
2019-01-24T12:55:46.455Z,40.95
2019-01-24T12:56:55.645Z,40.15
2019-01-24T12:58:05.885Z,43.38
2019-01-24T12:59:11.736Z,42.95
2019-01-24T13:00:21.841Z,40.95
2019-01-24T13:01:27.673Z,40.05
2019-01-24T13:02:33.878Z,44.03
2019-01-24T13:03:43.804Z,44.75
2019-01-24T13:04:53.371Z,43.28
2019-01-24T13:05:59.325Z,42.15
2019-01-24T13:07:07.707Z,39.20
2019-01-24T13:08:26.107Z,43.30
2019-01-24T13:09:33.652Z,41.50
2019-01-24T13:10:40.298Z,43.30
2019-01-24T13:11:49.275Z,40.88
2019-01-24T13:12:57.165Z,43.38
2019-01-24T13:14:07.305Z,42.48
2019-01-24T13:15:17.323Z,40.70
2019-01-24T13:16:37.366Z,39.35
2019-01-24T13:17:51.387Z,42.67
2019-01-24T13:18:58.931Z,41.48
2019-01-24T13:20:05.390Z,39.73
2019-01-24T13:21:14.062Z,43.25
2019-01-24T13:22:20.675Z,41.15
2019-01-24T13:23:29.659Z,41.98
2019-01-24T13:24:36.609Z,45.63
2019-01-24T13:25:44.642Z,42.58
2019-01-24T13:26:51.301Z,40.92
2019-01-24T13:27:58.080Z,40.23
2019-01-24T13:29:04.959Z,43.65
2019-01-24T13:30:17.376Z,42.78
2019-01-24T13:31:26.535Z,40.33
2019-01-24T13:32:37.000Z,42.05
2019-01-24T13:34:11.040Z,41.95
2019-01-24T13:35:18.115Z,40.95
2019-01-24T13:36:35.429Z,39.63
2019-01-24T13:37:43.929Z,44.93
2019-01-24T13:38:51.281Z,40.17
2019-01-24T13:40:02.349Z,42.95
2019-01-24T13:41:21.825Z,40.55
2019-01-24T13:42:36.805Z,40.65
2019-01-24T13:43:47.251Z,41.00
2019-01-24T13:44:57.668Z,41.68
2019-01-24T13:46:23.538Z,41.05
2019-01-24T13:50:50.870Z,41.75
2019-01-24T13:51:59.776Z,38.95
2019-01-24T13:53:07.328Z,38.92
2019-01-24T13:54:14.761Z,37.60
2019-01-24T13:55:21.492Z,38.53
2019-01-24T13:56:29.240Z,38.60
2019-01-24T13:57:36.707Z,45.55
2019-01-24T13:58:44.323Z,42.43
2019-01-24T13:59:50.060Z,43.60
2019-01-24T14:00:55.623Z,42.58
2019-01-24T14:02:02.093Z,39.18
2019-01-24T14:03:42.274Z,40.78
2019-01-24T14:04:48.630Z,40.75
2019-01-24T14:05:56.132Z,37.70
2019-01-24T14:07:08.094Z,44.48
2019-01-24T14:08:17.521Z,43.87
2019-01-24T14:09:22.895Z,42.50
2019-01-24T14:10:28.463Z,41.20
2019-01-24T14:11:34.456Z,40.70
2019-01-24T14:12:42.624Z,36.23
2019-01-24T14:13:47.970Z,42.80
2019-01-24T14:15:06.101Z,39.75
2019-01-24T14:16:11.754Z,42.15
2019-01-24T14:17:17.879Z,41.65
2019-01-24T14:18:23.701Z,40.85
2019-01-24T14:19:29.692Z,41.45
2019-01-24T14:20:35.421Z,43.25
2019-01-24T14:21:44.328Z,43.38
2019-01-24T14:22:50.231Z,39.53
2019-01-24T14:23:55.783Z,43.65
2019-01-24T14:25:02.038Z,41.50
2019-01-24T14:26:09.272Z,40.70
2019-01-24T14:27:16.002Z,40.90
2019-01-24T14:28:24.069Z,43.52
2019-01-24T14:29:30.305Z,47.40
2019-01-24T14:30:39.885Z,42.23
2019-01-24T14:31:48.665Z,39.98
2019-01-24T14:33:01.226Z,43.95
2019-01-24T14:34:20.946Z,42.62
2019-01-24T14:35:28.290Z,42.23
2019-01-24T14:36:35.215Z,39.53
2019-01-24T14:37:40.964Z,41.63
2019-01-24T14:38:49.880Z,37.85
2019-01-24T14:39:55.232Z,40.25
2019-01-24T14:41:01.234Z,41.28
2019-01-24T14:42:07.227Z,40.05
2019-01-24T14:43:15.633Z,39.40
2019-01-24T14:44:25.280Z,43.02
2019-01-24T14:45:28.707Z,40.95
2019-01-24T14:46:34.350Z,40.33
2019-01-24T14:47:45.710Z,42.40
2019-01-24T14:48:53.032Z,40.25
2019-01-24T14:50:04.457Z,40.92
2019-01-24T14:51:10.565Z,40.45
2019-01-24T14:52:16.401Z,41.20
2019-01-24T14:53:22.278Z,37.67
2019-01-24T14:54:27.781Z,39.83
2019-01-24T14:55:35.953Z,43.40
2019-01-24T14:56:43.337Z,38.05
2019-01-24T14:57:49.270Z,40.38
2019-01-24T14:58:54.648Z,38.88
2019-01-24T15:00:00.384Z,41.92
2019-01-24T15:01:17.902Z,39.38
2019-01-24T15:02:26.787Z,40.38
2019-01-24T15:03:37.917Z,41.92
2019-01-24T15:04:50.211Z,40.43
2019-01-24T15:05:56.249Z,39.67
2019-01-24T15:07:03.293Z,39.63
2019-01-24T15:08:12.662Z,41.23
2019-01-24T15:09:27.766Z,41.65
2019-01-24T15:10:34.009Z,40.45
2019-01-24T15:11:44.901Z,40.10
2019-01-24T15:12:52.242Z,41.08
2019-01-24T15:13:58.422Z,40.23
2019-01-24T15:15:04.506Z,38.45